YSCB

Canberra International Airport

Airport
ICAO code
YSCB
IATA Code
CBR
Summary
ICAO Region
APAC
ICAO Territory
Location

Canberra, Australian Capital Territory

Serving
Canberra
Elevation
1888 ft
Coordinates
35° 18' 19" S , 149° 11' 36" E
Metar
Observation
YSCB 070230Z AUTO 34005KT 9999 // BKN043 BKN053 BKN062 25/13 Q1016
Station
Canberra
Date/Time
2023-02-07 03:30:00
Wind direction
340°
Wind speed
05 kts
Lowest cloud amount
broken clouds
Temperature
25°C
Dew point
13°C
Humidity
47%
QNH
1016 hPa
Weather condition
n/a

Airport map

Aerial View

SKYbrary Partners:

Safety knowledge contributed by: